Darstellungsparameter: Aktuell verwendete Einstellungen:
Skalierung der Graphiken ... ?
xyx+y,   Skalierungsfaktor:      Skalierung: Modus: x, Faktor: 1
Darstellungszeitraum ... ?
Vom - - bis: - -   Zeitraum: 18.04.2021 - 18.04.2021
Min/Max/Avg-Anzeige ... ?
Zeige MMA aktuell
Zeige MMA Monat
Zeige MMA alles
Zeige --A aktuell
Zeige --A Monat
Zeige --A alles
Keine MMA-Anzeige
MMA:
Minimum Maximum Average (ber die Originaldaten)
MMA-Basis: 14.04.2020 - 16.05.2020
Quicknavigation für Darstellung... ?
Tage:      1T, 2T, 3T, 5T -1T -2T -3T -5T +1T +2T +3T +5T
Wochen: 1W, 2W, 3W -1W -2W -3W +1W +2W +3W
Monate: 1M, 3M, 6M -1M -3M -6M +1M +3M +6M
Jahre:    1J, 3J, 5J, 10J -1J -3J -5J -10J +1J +3J +5J +10J
Nutze für die Darstellung ... ?
Originaldaten oder Mittelwerte auf ...
Stundenbasis Tagesbasis Wochenbasis
Monatsbasis Jahresbasis      Datenbasis: Original-Daten
Darstellen als:
Statistik (Auto) Statistik J:M      Darstellung:

Der gewünschte Datumsbereich war nicht gültig/verfügbar und wurde korrigiert....
Das angegebene Enddatum (04.09.2021 23:59:59) liegt in der Zukunft.
Das angegebene Startdatum (04.09.2021 00:00:00) liegt in der Zukunft.


Zur Graphik,    zurück zur Übersicht aller Sensoren.
 
Tabellarische Datenbersicht: ?
 
Sensor: Nr:Datum:Temp:Abs-Feuchte:Windchill:Wind:
Aussen-T/F 1 18-04-2021 02:00:00 7.1 C 6.16 g/m*3 7.1 C 0 km/h
2 18-04-2021 02:05:00 7 C 6.04 g/m*3 7 C 0 km/h
3 18-04-2021 02:10:00 7 C 6.04 g/m*3 7 C 0 km/h
4 18-04-2021 02:15:00 7 C 6.12 g/m*3 7 C 0 km/h
5 18-04-2021 02:20:00 7 C 6.12 g/m*3 7 C 0 km/h
6 18-04-2021 02:25:00 6.9 C 6.08 g/m*3 6.9 C 0 km/h
7 18-04-2021 02:30:00 6.8 C 5.97 g/m*3 6.8 C 0 km/h
8 18-04-2021 02:35:00 6.7 C 5.85 g/m*3 6.7 C 0 km/h
9 18-04-2021 02:40:00 6.6 C 5.89 g/m*3 6.6 C 0 km/h
10 18-04-2021 02:45:00 6.4 C 5.81 g/m*3 6.4 C 0 km/h
11 18-04-2021 02:50:00 6.4 C 5.89 g/m*3 6.4 C 0 km/h
12 18-04-2021 02:55:00 6.3 C 5.85 g/m*3 6.3 C 0 km/h
13 18-04-2021 03:00:00 6.3 C 5.92 g/m*3 6.3 C 0 km/h
14 18-04-2021 03:05:00 6.3 C 5.92 g/m*3 6.3 C 0 km/h
15 18-04-2021 03:10:00 6.2 C 5.88 g/m*3 6.2 C 0 km/h
16 18-04-2021 03:15:00 6.2 C 5.81 g/m*3 6.2 C 0 km/h
17 18-04-2021 03:20:00 6.1 C 5.77 g/m*3 6.1 C 0 km/h
18 18-04-2021 03:25:00 6 C 5.81 g/m*3 6 C 0 km/h
19 18-04-2021 03:30:00 6 C 5.88 g/m*3 6 C 0 km/h
20 18-04-2021 03:35:00 6.1 C 5.92 g/m*3 6.1 C 0 km/h
21 18-04-2021 03:40:00 6.1 C 5.99 g/m*3 6.1 C 0 km/h
22 18-04-2021 03:45:00 6.1 C 5.99 g/m*3 6.1 C 0 km/h
23 18-04-2021 03:50:00 6.2 C 6.03 g/m*3 6.2 C 0 km/h
24 18-04-2021 03:55:00 6.2 C 5.96 g/m*3 6.2 C 0 km/h
25 18-04-2021 04:00:00 6.2 C 5.96 g/m*3 6.2 C 0 km/h
Sensor: Nr:Datum:Temp:Abs-Feuchte:Windchill:Wind:
Aussen-T/F 26 18-04-2021 04:05:00 6.2 C 5.96 g/m*3 6.2 C 0 km/h
27 18-04-2021 04:10:00 6.2 C 5.96 g/m*3 6.2 C 0 km/h
28 18-04-2021 04:15:00 6.3 C 6.07 g/m*3 6.3 C 0 km/h
29 18-04-2021 04:20:00 6.3 C 6 g/m*3 6.3 C 0 km/h
30 18-04-2021 04:25:00 6.3 C 6 g/m*3 6.3 C 0 km/h
31 18-04-2021 04:30:00 6.3 C 6 g/m*3 6.3 C 0 km/h
32 18-04-2021 04:35:00 6.3 C 6 g/m*3 6.3 C 0 km/h
33 18-04-2021 04:40:00 6.3 C 5.92 g/m*3 6.3 C 0 km/h
34 18-04-2021 04:45:00 6.4 C 5.96 g/m*3 6.4 C 0 km/h
35 18-04-2021 04:50:00 6.4 C 6.04 g/m*3 6.4 C 0 km/h
36 18-04-2021 04:55:00 6.4 C 5.96 g/m*3 6.4 C 0 km/h
37 18-04-2021 05:00:00 6.5 C 5.92 g/m*3 6.5 C 0 km/h
38 18-04-2021 05:05:00 6.5 C 5.85 g/m*3 6.5 C 0 km/h
39 18-04-2021 05:10:00 6.6 C 5.89 g/m*3 6.6 C 0 km/h
40 18-04-2021 05:15:00 6.6 C 5.96 g/m*3 6.6 C 0 km/h
41 18-04-2021 05:20:00 6.6 C 5.96 g/m*3 6.6 C 0 km/h
42 18-04-2021 05:25:00 6.7 C 6.08 g/m*3 6.7 C 0 km/h
43 18-04-2021 05:30:00 6.7 C 6.08 g/m*3 6.7 C 0 km/h
44 18-04-2021 05:35:00 6.7 C 6.08 g/m*3 6.7 C 0 km/h
45 18-04-2021 05:40:00 6.7 C 6 g/m*3 6.7 C 0 km/h
46 18-04-2021 05:45:00 6.7 C 6 g/m*3 6.7 C 0 km/h
47 18-04-2021 05:50:00 6.7 C 6 g/m*3 6.7 C 0 km/h
48 18-04-2021 05:55:00 6.7 C 5.85 g/m*3 6.7 C 3.2 km/h
49 18-04-2021 06:00:00 6.7 C 6 g/m*3 6.7 C 0 km/h
50 18-04-2021 06:05:00 6.8 C 5.97 g/m*3 6.8 C 1.6 km/h
Sensor: Nr:Datum:Temp:Abs-Feuchte:Windchill:Wind:
Aussen-T/F 51 18-04-2021 06:10:00 6.8 C 5.97 g/m*3 6.8 C 1.6 km/h
52 18-04-2021 06:15:00 6.8 C 6.04 g/m*3 6.8 C 0 km/h
53 18-04-2021 06:20:00 6.8 C 5.89 g/m*3 6.8 C 4.8 km/h
54 18-04-2021 06:25:00 6.8 C 5.89 g/m*3 6.8 C 0 km/h
55 18-04-2021 06:30:00 6.8 C 5.97 g/m*3 6.8 C 0 km/h
56 18-04-2021 06:35:00 6.8 C 5.97 g/m*3 6.8 C 0 km/h
57 18-04-2021 06:40:00 6.8 C 6.04 g/m*3 6.8 C 0 km/h
58 18-04-2021 06:45:00 6.8 C 6.04 g/m*3 6.8 C 0 km/h
59 18-04-2021 06:50:00 6.8 C 6.04 g/m*3 6.8 C 0 km/h
60 18-04-2021 06:55:00 6.7 C 6 g/m*3 6.7 C 0 km/h
61 18-04-2021 07:00:00 6.7 C 6 g/m*3 6.7 C 1.6 km/h
62 18-04-2021 07:05:00 6.7 C 5.93 g/m*3 6.7 C 0 km/h
63 18-04-2021 07:10:00 6.7 C 6 g/m*3 6.7 C 0 km/h
64 18-04-2021 07:15:00 6.7 C 6 g/m*3 6.7 C 0 km/h
65 18-04-2021 07:20:00 6.8 C 5.97 g/m*3 6.8 C 3.2 km/h
66 18-04-2021 07:25:00 6.8 C 5.97 g/m*3 6.8 C 1.6 km/h
67 18-04-2021 07:30:00 6.8 C 5.97 g/m*3 6.8 C 1.6 km/h
68 18-04-2021 07:35:00 6.9 C 6 g/m*3 6.9 C 0 km/h
69 18-04-2021 07:40:00 6.9 C 6 g/m*3 6.9 C 0 km/h
70 18-04-2021 07:45:00 6.9 C 6 g/m*3 6.9 C 0 km/h
71 18-04-2021 07:50:00 7 C 6.04 g/m*3 7 C 0 km/h
72 18-04-2021 07:55:00 7 C 6.04 g/m*3 7 C 4.8 km/h
73 18-04-2021 08:00:00 7 C 6.04 g/m*3 7 C 0 km/h
74 18-04-2021 08:05:00 7.1 C 6.01 g/m*3 7.1 C 4.8 km/h
75 18-04-2021 08:10:00 7.1 C 6.01 g/m*3 7.1 C 0 km/h
Sensor: Nr:Datum:Temp:Abs-Feuchte:Windchill:Wind:
Aussen-T/F 76 18-04-2021 08:15:00 7.1 C 6.01 g/m*3 7.1 C 0 km/h
77 18-04-2021 08:20:00 7.2 C 6.04 g/m*3 7.2 C 0 km/h
78 18-04-2021 08:25:00 7.2 C 6.04 g/m*3 7.2 C 0 km/h
79 18-04-2021 08:30:00 7.3 C 6.08 g/m*3 7.3 C 0 km/h
80 18-04-2021 08:35:00 7.3 C 6.08 g/m*3 7.3 C 0 km/h
81 18-04-2021 08:40:00 7.3 C 6.08 g/m*3 7.3 C 0 km/h
82 18-04-2021 08:45:00 7.4 C 6.2 g/m*3 7.4 C 0 km/h
83 18-04-2021 08:50:00 7.4 C 6.12 g/m*3 7.4 C 0 km/h
84 18-04-2021 08:55:00 7.5 C 6.16 g/m*3 7.5 C 0 km/h
85 18-04-2021 09:00:00 7.6 C 6.12 g/m*3 7.6 C 0 km/h

Legende:
   Min
   Max


Maximal/Minimal-Werte vom 14.04.2020 - 16.05.2020

Sensor Min Max Avg
Temp
(Aussen-T/F)
-0.1 °C
15-04-2020  06:55:00
26.2 °C
17-04-2020  18:05:00
11.98 °C

Die Daten stammen von einer Davis Vantage Pro 2 Wetter-Station und werden unter Linux mit der Software wview2wettercgi und aufbereitet. Alle Angaben erfolgen ohne Gewähr für ihre Vollständigkeit oder Richtigkeit.
Kontakt: Rainer Krienke krienke@uni-koblenz.de . Meine Webseiten an der Uni Koblenz oder privat.
Version: $Revision: 0.78 $